Time;durP1;ratioP1;P1;durP2;ratioP2;P2;SDS_P1;SDS_P2;PMS_P1;PMS_P2;Temp;Humidity;BMP_temperature;BMP_pressure;BME280_temperature;BME280_humidity;BME280_pressure;Samples;Min_cycle;Max_cycle;Signal;HPM_P1;HPM_P2
2023/08/12 00:00:52;;;;;;;10.18;4.82;;;;;;;;;;4994738;28;20058;-67
2023/08/12 00:03:19;;;;;;;10.43;4.72;;;;;;;;;;4997582;28;20053;-67
2023/08/12 00:05:53;;;;;;;10.57;4.70;;;;;;;;;;4996333;28;20042;-60
2023/08/12 00:08:20;;;;;;;8.38;4.57;;;;;;;;;;4996074;28;20066;-61
2023/08/12 00:10:48;;;;;;;12.30;5.35;;;;;;;;;;4992369;28;20137;-60
2023/08/12 00:13:21;;;;;;;10.80;5.10;;;;;;;;;;4989220;28;20109;-60
2023/08/12 00:15:48;;;;;;;8.48;4.95;;;;;;;;;;4992664;28;20051;-57
2023/08/12 00:18:23;;;;;;;7.22;4.93;;;;;;;;;;4989926;28;20435;-53
2023/08/12 00:20:51;;;;;;;9.15;4.78;;;;;;;;;;4992885;28;20467;-55
2023/08/12 00:23:18;;;;;;;6.95;4.68;;;;;;;;;;4995445;28;20062;-53
2023/08/12 00:25:52;;;;;;;8.93;5.00;;;;;;;;;;4993486;28;20050;-51
2023/08/12 00:28:19;;;;;;;9.10;5.20;;;;;;;;;;4992203;28;20054;-52
2023/08/12 00:30:53;;;;;;;11.43;5.30;;;;;;;;;;4994011;28;20069;-53
2023/08/12 00:33:20;;;;;;;11.02;4.97;;;;;;;;;;4996480;28;20046;-53
2023/08/12 00:35:48;;;;;;;14.45;5.03;;;;;;;;;;4994973;28;20062;-54
2023/08/12 00:38:21;;;;;;;10.38;5.03;;;;;;;;;;4979896;28;20441;-53
2023/08/12 00:40:48;;;;;;;10.10;5.63;;;;;;;;;;4995654;28;20058;-54
2023/08/12 00:43:22;;;;;;;16.77;5.50;;;;;;;;;;4990473;28;20539;-56
2023/08/12 00:45:50;;;;;;;18.00;5.15;;;;;;;;;;4988648;28;20058;-47
2023/08/12 00:48:17;;;;;;;;;;;;;;;;;;4997513;28;20386;-49
2023/08/12 00:50:52;;;;;;;7.90;4.95;;;;;;;;;;4994320;28;20409;-50
2023/08/12 00:53:19;;;;;;;11.15;6.03;;;;;;;;;;4991632;28;20635;-47
2023/08/12 00:55:46;;;;;;;12.35;5.15;;;;;;;;;;4993619;28;20834;-48
2023/08/12 00:58:20;;;;;;;8.82;5.13;;;;;;;;;;4995113;28;20518;-49
2023/08/12 01:00:47;;;;;;;11.27;5.88;;;;;;;;;;4993994;28;20050;-54
2023/08/12 01:03:28;;;;;;;16.88;5.90;;;;;;;;;;4992692;28;20050;-51
2023/08/12 01:05:55;;;;;;;10.65;6.03;;;;;;;;;;4992689;28;20644;-53
2023/08/12 01:08:31;;;;;;;13.57;5.70;;;;;;;;;;4994186;28;20058;-56
2023/08/12 01:11:07;;;;;;;19.83;6.13;;;;;;;;;;4996052;28;20105;-59
2023/08/12 01:13:41;;;;;;;9.77;6.00;;;;;;;;;;4994424;28;20144;-59
2023/08/12 01:16:09;;;;;;;12.05;6.13;;;;;;;;;;4993226;28;20563;-58
2023/08/12 01:18:38;;;;;;;10.55;5.57;;;;;;;;;;4987899;28;20361;-59
2023/08/12 01:21:16;;;;;;;8.25;5.80;;;;;;;;;;4990548;28;20061;-58
2023/08/12 01:23:45;;;;;;;13.25;5.47;;;;;;;;;;4996106;28;20108;-58
2023/08/12 01:26:19;;;;;;;12.82;6.05;;;;;;;;;;4992210;28;20049;-59
2023/08/12 01:28:47;;;;;;;11.57;5.65;;;;;;;;;;4995012;28;20064;-60
2023/08/12 01:31:32;;;;;;;12.93;5.22;;;;;;;;;;4994684;28;20077;-60
2023/08/12 01:34:16;;;;;;;10.95;6.18;;;;;;;;;;4994176;28;20062;-59
2023/08/12 01:36:46;;;;;;;11.77;5.88;;;;;;;;;;4991840;28;20523;-60
2023/08/12 01:39:20;;;;;;;12.25;5.80;;;;;;;;;;4992466;28;20069;-67
2023/08/12 01:41:48;;;;;;;13.25;5.82;;;;;;;;;;4994105;28;20925;-67
2023/08/12 01:44:21;;;;;;;12.50;5.57;;;;;;;;;;4994209;28;20117;-55
2023/08/12 01:46:50;;;;;;;10.43;6.32;;;;;;;;;;4995990;28;20137;-56
2023/08/12 01:49:17;;;;;;;11.32;5.82;;;;;;;;;;4992803;28;20129;-56
2023/08/12 01:51:51;;;;;;;12.90;5.60;;;;;;;;;;4993275;28;20074;-53
2023/08/12 01:54:19;;;;;;;10.32;5.05;;;;;;;;;;4991713;28;20051;-56
2023/08/12 01:56:52;;;;;;;9.55;5.50;;;;;;;;;;4993162;28;20066;-55
2023/08/12 01:59:19;;;;;;;16.10;5.88;;;;;;;;;;4978132;28;20120;-57
2023/08/12 02:01:47;;;;;;;13.40;5.85;;;;;;;;;;4997224;28;20073;-54
2023/08/12 02:04:20;;;;;;;20.58;6.55;;;;;;;;;;4991095;28;20058;-55
2023/08/12 02:06:49;;;;;;;13.75;6.18;;;;;;;;;;4995170;28;20090;-56
2023/08/12 02:09:23;;;;;;;17.00;6.68;;;;;;;;;;4989310;28;20725;-55
2023/08/12 02:11:50;;;;;;;12.93;6.28;;;;;;;;;;4999474;28;20069;-69
2023/08/12 02:14:18;;;;;;;11.55;7.43;;;;;;;;;;4997011;28;20053;-68
2023/08/12 02:16:51;;;;;;;11.93;6.43;;;;;;;;;;4995294;28;20112;-68
2023/08/12 02:19:18;;;;;;;11.35;7.10;;;;;;;;;;4991010;28;20058;-68
2023/08/12 02:21:52;;;;;;;10.65;7.18;;;;;;;;;;4998790;28;20046;-69
2023/08/12 02:24:19;;;;;;;9.23;7.35;;;;;;;;;;4995373;28;20371;-68
2023/08/12 02:26:46;;;;;;;9.90;5.88;;;;;;;;;;4996087;28;20058;-51
2023/08/12 02:29:20;;;;;;;12.95;6.97;;;;;;;;;;4995313;28;20049;-57
2023/08/12 02:31:48;;;;;;;9.90;6.15;;;;;;;;;;4995221;28;20046;-56
2023/08/12 02:34:21;;;;;;;11.35;6.88;;;;;;;;;;4994019;28;20523;-55
2023/08/12 02:36:49;;;;;;;11.95;7.35;;;;;;;;;;5000455;28;20062;-57
2023/08/12 02:39:16;;;;;;;14.02;7.20;;;;;;;;;;5001721;28;20101;-55
2023/08/12 02:41:50;;;;;;;19.10;7.65;;;;;;;;;;4996833;28;20542;-56
2023/08/12 02:44:18;;;;;;;10.65;6.32;;;;;;;;;;4999744;28;20110;-57
2023/08/12 02:46:51;;;;;;;16.15;6.85;;;;;;;;;;4995355;28;20057;-55
2023/08/12 02:49:19;;;;;;;12.85;7.28;;;;;;;;;;4996509;28;20236;-56
2023/08/12 02:51:52;;;;;;;12.90;6.63;;;;;;;;;;5000577;28;20061;-55
2023/08/12 02:54:20;;;;;;;13.57;7.15;;;;;;;;;;4994961;28;20061;-64
2023/08/12 02:56:47;;;;;;;11.38;6.30;;;;;;;;;;4997246;28;20163;-63
2023/08/12 02:59:20;;;;;;;13.48;7.18;;;;;;;;;;4994179;28;20141;-63
2023/08/12 03:01:54;;;;;;;15.73;7.15;;;;;;;;;;4997699;28;20058;-63
2023/08/12 03:04:29;;;;;;;11.63;6.72;;;;;;;;;;4997525;28;20543;-63
2023/08/12 03:06:56;;;;;;;20.23;6.65;;;;;;;;;;4996602;28;20054;-69
2023/08/12 03:09:23;;;;;;;11.77;7.07;;;;;;;;;;4996179;28;20058;-68
2023/08/12 03:12:01;;;;;;;13.45;6.45;;;;;;;;;;4994555;28;20842;-68
2023/08/12 03:14:30;;;;;;;11.02;6.70;;;;;;;;;;4993578;28;21585;-68
2023/08/12 03:17:03;;;;;;;13.02;6.78;;;;;;;;;;4995611;28;20109;-68
2023/08/12 03:19:31;;;;;;;13.50;7.05;;;;;;;;;;4994464;28;20053;-68
2023/08/12 03:21:58;;;;;;;10.25;6.43;;;;;;;;;;4990574;28;20050;-67
2023/08/12 03:24:32;;;;;;;13.32;7.53;;;;;;;;;;4996893;28;20587;-62
2023/08/12 03:27:00;;;;;;;11.73;7.22;;;;;;;;;;4998185;28;20152;-64
2023/08/12 03:29:34;;;;;;;14.32;6.30;;;;;;;;;;4998345;28;20289;-64
2023/08/12 03:32:01;;;;;;;;;;;;;;;;;;4995201;28;20054;-64
2023/08/12 03:34:29;;;;;;;13.55;7.55;;;;;;;;;;4994953;28;19925;-57
2023/08/12 03:37:03;;;;;;;18.88;8.48;;;;;;;;;;4995376;28;20488;-63
2023/08/12 03:39:30;;;;;;;12.93;8.27;;;;;;;;;;4993729;28;20086;-64
2023/08/12 03:42:05;;;;;;;15.40;9.00;;;;;;;;;;4993676;28;20046;-64
2023/08/12 03:44:32;;;;;;;;;;;;;;;;;;5000993;28;20093;-64
2023/08/12 03:46:59;;;;;;;18.05;8.70;;;;;;;;;;4995832;28;19922;-64
2023/08/12 03:49:33;;;;;;;17.15;8.60;;;;;;;;;;4995911;28;20065;-64
2023/08/12 03:52:01;;;;;;;13.07;8.75;;;;;;;;;;4994347;28;20120;-53
2023/08/12 03:54:35;;;;;;;10.40;8.52;;;;;;;;;;4993713;28;20666;-53
2023/08/12 03:57:03;;;;;;;15.02;7.57;;;;;;;;;;4990018;28;20066;-53
2023/08/12 03:59:30;;;;;;;17.20;9.57;;;;;;;;;;4994345;28;20056;-53
2023/08/12 04:02:16;;;;;;;18.52;9.35;;;;;;;;;;4996208;28;20046;-56
2023/08/12 04:04:43;;;;;;;16.08;8.90;;;;;;;;;;4995213;28;20567;-51
2023/08/12 04:07:17;;;;;;;16.52;9.40;;;;;;;;;;4990351;28;20066;-54
2023/08/12 04:09:44;;;;;;;17.58;9.80;;;;;;;;;;4994205;28;20795;-51
2023/08/12 04:12:12;;;;;;;;;;;;;;;;;;5003219;28;20136;-52
2023/08/12 04:14:47;;;;;;;20.42;9.52;;;;;;;;;;4991071;28;19985;-51
2023/08/12 04:17:14;;;;;;;21.23;10.00;;;;;;;;;;4997404;28;20073;-49
2023/08/12 04:19:47;;;;;;;19.08;9.63;;;;;;;;;;4994469;28;20109;-65
2023/08/12 04:22:14;;;;;;;13.27;9.50;;;;;;;;;;4990923;28;20057;-66
2023/08/12 04:24:42;;;;;;;12.35;8.85;;;;;;;;;;4992416;28;20112;-66
2023/08/12 04:27:16;;;;;;;16.63;9.50;;;;;;;;;;4997693;28;20058;-66
2023/08/12 04:29:43;;;;;;;26.38;9.40;;;;;;;;;;4993872;28;20149;-52
2023/08/12 04:32:10;;;;;;;19.10;9.35;;;;;;;;;;4998362;28;20128;-58
2023/08/12 04:34:45;;;;;;;17.98;9.15;;;;;;;;;;4992149;28;20081;-59
2023/08/12 04:37:12;;;;;;;19.42;9.50;;;;;;;;;;4993957;28;20065;-59
2023/08/12 04:39:53;;;;;;;18.02;9.43;;;;;;;;;;4996417;28;20046;-59
2023/08/12 04:42:20;;;;;;;18.40;9.10;;;;;;;;;;4996043;28;20053;-59
2023/08/12 04:44:54;;;;;;;19.27;9.63;;;;;;;;;;4997592;28;20120;-59
2023/08/12 04:47:28;;;;;;;18.00;8.90;;;;;;;;;;4994788;28;20054;-59
2023/08/12 04:50:09;;;;;;;18.00;9.15;;;;;;;;;;4993232;28;20045;-69
2023/08/12 04:52:36;;;;;;;19.05;9.27;;;;;;;;;;4994785;28;20050;-69
2023/08/12 04:55:10;;;;;;;13.77;8.55;;;;;;;;;;4991257;28;20057;-69
2023/08/12 04:57:37;;;;;;;20.15;9.00;;;;;;;;;;4997073;28;20116;-69
2023/08/12 05:00:08;;;;;;;18.52;8.60;;;;;;;;;;4996167;28;20080;-53
2023/08/12 05:02:48;;;;;;;15.68;8.48;;;;;;;;;;4995618;28;20058;-59
2023/08/12 05:05:16;;;;;;;15.90;8.30;;;;;;;;;;4993653;28;20054;-60
2023/08/12 05:07:50;;;;;;;20.15;8.20;;;;;;;;;;4994613;28;20064;-60
2023/08/12 05:10:17;;;;;;;19.00;8.32;;;;;;;;;;4988905;28;20137;-60
2023/08/12 05:12:44;;;;;;;;;;;;;;;;;;4997802;28;20054;-60
2023/08/12 05:15:18;;;;;;;13.35;7.55;;;;;;;;;;4989320;28;19989;-60
2023/08/12 05:17:45;;;;;;;12.57;7.57;;;;;;;;;;4994394;28;21137;-56
2023/08/12 05:20:20;;;;;;;15.63;7.53;;;;;;;;;;4992393;28;20046;-56
2023/08/12 05:22:47;;;;;;;17.55;8.50;;;;;;;;;;4993312;28;20416;-56
2023/08/12 05:25:14;;;;;;;15.23;7.65;;;;;;;;;;4992726;28;20053;-57
2023/08/12 05:27:48;;;;;;;18.15;7.82;;;;;;;;;;4994980;28;20062;-59
2023/08/12 05:30:16;;;;;;;15.95;7.70;;;;;;;;;;4991271;28;20516;-58
2023/08/12 05:32:43;;;;;;;18.20;7.88;;;;;;;;;;4996600;28;20053;-60
2023/08/12 05:35:16;;;;;;;15.75;7.85;;;;;;;;;;4987184;28;20140;-59
2023/08/12 05:37:44;;;;;;;14.25;7.60;;;;;;;;;;4994709;28;20137;-59
2023/08/12 05:40:17;;;;;;;18.70;7.82;;;;;;;;;;4994175;28;20046;-59
2023/08/12 05:42:45;;;;;;;18.67;7.97;;;;;;;;;;4993356;28;20058;-58
2023/08/12 05:45:12;;;;;;;16.83;7.97;;;;;;;;;;4991233;28;20050;-58
2023/08/12 05:47:46;;;;;;;22.13;8.13;;;;;;;;;;4993277;28;20057;-59
2023/08/12 05:50:14;;;;;;;21.52;7.93;;;;;;;;;;4989920;28;20140;-58
2023/08/12 05:52:47;;;;;;;20.70;7.78;;;;;;;;;;4995452;28;20341;-58
2023/08/12 05:55:15;;;;;;;17.20;7.85;;;;;;;;;;4993278;28;20074;-49
2023/08/12 05:57:42;;;;;;;23.30;8.20;;;;;;;;;;4994967;28;20053;-67
2023/08/12 06:00:15;;;;;;;13.73;6.43;;;;;;;;;;4995508;28;20062;-67
2023/08/12 06:02:49;;;;;;;19.05;8.48;;;;;;;;;;4994986;28;20058;-67
2023/08/12 06:05:29;;;;;;;21.38;8.43;;;;;;;;;;4991889;28;20062;-67
2023/08/12 06:07:56;;;;;;;27.80;8.05;;;;;;;;;;4991643;28;20062;-66
2023/08/12 06:10:30;;;;;;;25.63;8.77;;;;;;;;;;4995791;28;20061;-67
2023/08/12 06:12:58;;;;;;;16.27;8.60;;;;;;;;;;4992263;28;20112;-65
2023/08/12 06:15:25;;;;;;;20.48;8.73;;;;;;;;;;4991989;28;20207;-58
2023/08/12 06:17:58;;;;;;;19.20;8.57;;;;;;;;;;4989703;28;20062;-57
2023/08/12 06:20:26;;;;;;;29.40;9.98;;;;;;;;;;4980717;28;20137;-58
2023/08/12 06:23:00;;;;;;;22.65;9.95;;;;;;;;;;4988901;28;20046;-58
2023/08/12 06:25:27;;;;;;;27.40;9.43;;;;;;;;;;4991106;28;20140;-53
2023/08/12 06:27:55;;;;;;;17.65;9.43;;;;;;;;;;4990810;28;20515;-60
2023/08/12 06:30:28;;;;;;;19.95;9.52;;;;;;;;;;4993711;28;20049;-60
2023/08/12 06:32:55;;;;;;;21.67;10.55;;;;;;;;;;4992772;28;20050;-60
2023/08/12 06:35:29;;;;;;;24.55;11.13;;;;;;;;;;4986409;28;20066;-60
2023/08/12 06:38:03;;;;;;;29.88;12.43;;;;;;;;;;4996168;28;20119;-60
2023/08/12 06:40:31;;;;;;;21.60;10.48;;;;;;;;;;4996527;28;20392;-60
2023/08/12 06:42:58;;;;;;;17.30;8.63;;;;;;;;;;4998261;28;20097;-56
2023/08/12 06:45:39;;;;;;;20.00;10.10;;;;;;;;;;4995120;28;20499;-56
2023/08/12 06:48:06;;;;;;;16.65;9.57;;;;;;;;;;4992883;28;20056;-56
2023/08/12 06:50:41;;;;;;;23.15;9.65;;;;;;;;;;4996775;28;20053;-57
2023/08/12 06:53:08;;;;;;;20.70;10.10;;;;;;;;;;4996713;28;20054;-62
2023/08/12 06:55:35;;;;;;;17.75;9.18;;;;;;;;;;4991263;28;20666;-57
2023/08/12 06:58:09;;;;;;;16.75;9.43;;;;;;;;;;4997965;28;20058;-57
2023/08/12 07:00:37;;;;;;;12.68;8.23;;;;;;;;;;4989272;28;20117;-55
2023/08/12 07:03:10;;;;;;;18.27;9.50;;;;;;;;;;4997303;28;20050;-57
2023/08/12 07:05:43;;;;;;;17.15;9.93;;;;;;;;;;4978487;28;20072;-56
2023/08/12 07:08:10;;;;;;;18.98;9.80;;;;;;;;;;4994184;28;20117;-56
2023/08/12 07:10:44;;;;;;;27.63;11.48;;;;;;;;;;4998773;28;20116;-60
2023/08/12 07:13:12;;;;;;;23.75;11.18;;;;;;;;;;4993007;28;20060;-60
2023/08/12 07:15:39;;;;;;;18.65;11.18;;;;;;;;;;4991409;28;20093;-60
2023/08/12 07:18:13;;;;;;;20.38;11.38;;;;;;;;;;4993701;28;20050;-60
2023/08/12 07:20:40;;;;;;;26.30;11.40;;;;;;;;;;4995211;28;20109;-54
2023/08/12 07:23:13;;;;;;;21.75;11.65;;;;;;;;;;4993297;28;20327;-57
2023/08/12 07:25:41;;;;;;;19.33;11.05;;;;;;;;;;4995612;28;20065;-56
2023/08/12 07:28:08;;;;;;;19.40;12.20;;;;;;;;;;4993283;28;20098;-56
2023/08/12 07:30:42;;;;;;;24.63;11.75;;;;;;;;;;5002577;28;20053;-56
2023/08/12 07:33:09;;;;;;;;;;;;;;;;;;4999550;28;20041;-56
2023/08/12 07:35:42;;;;;;;21.90;10.30;;;;;;;;;;4995892;28;20453;-58
2023/08/12 07:38:10;;;;;;;26.20;12.60;;;;;;;;;;4998346;28;20058;-57
2023/08/12 07:40:37;;;;;;;31.60;12.18;;;;;;;;;;4990639;28;20047;-71
2023/08/12 07:43:11;;;;;;;26.83;12.40;;;;;;;;;;4994122;28;20054;-71
2023/08/12 07:45:38;;;;;;;25.38;13.15;;;;;;;;;;4997360;28;21463;-68
2023/08/12 07:48:05;;;;;;;26.95;12.02;;;;;;;;;;4991710;28;20058;-71
2023/08/12 07:50:40;;;;;;;24.42;13.27;;;;;;;;;;4992468;28;20189;-53
2023/08/12 07:53:07;;;;;;;23.77;12.80;;;;;;;;;;4997019;28;20160;-60
2023/08/12 07:55:40;;;;;;;21.45;13.18;;;;;;;;;;4996314;28;20612;-60
2023/08/12 07:58:08;;;;;;;25.58;13.27;;;;;;;;;;4981020;28;20068;-60
2023/08/12 08:00:35;;;;;;;;;;;;;;;;;;5000571;28;20061;-60
2023/08/12 08:03:15;;;;;;;23.13;12.82;;;;;;;;;;4998191;28;20020;-60
2023/08/12 08:05:45;;;;;;;20.92;11.98;;;;;;;;;;4986513;28;20196;-59
2023/08/12 08:08:20;;;;;;;29.20;13.13;;;;;;;;;;4994360;28;20354;-55
2023/08/12 08:10:47;;;;;;;27.85;13.98;;;;;;;;;;4993033;28;20073;-55
2023/08/12 08:13:14;;;;;;;25.42;14.43;;;;;;;;;;4993303;28;20070;-57
2023/08/12 08:15:48;;;;;;;29.20;14.95;;;;;;;;;;4988840;28;20108;-59
2023/08/12 08:18:15;;;;;;;27.23;15.23;;;;;;;;;;4996613;28;20046;-59
2023/08/12 08:20:50;;;;;;;34.65;15.05;;;;;;;;;;4993020;28;20504;-57
2023/08/12 08:23:17;;;;;;;27.80;16.08;;;;;;;;;;4994534;28;20053;-58
2023/08/12 08:25:44;;;;;;;22.77;14.25;;;;;;;;;;4993169;28;20799;-58
2023/08/12 08:28:18;;;;;;;23.10;14.15;;;;;;;;;;4994593;28;20078;-57
2023/08/12 08:30:46;;;;;;;21.90;13.25;;;;;;;;;;4997028;28;20156;-58
2023/08/12 08:33:28;;;;;;;22.33;13.00;;;;;;;;;;4996927;28;20058;-57
2023/08/12 08:36:09;;;;;;;26.25;14.40;;;;;;;;;;4991183;28;20119;-55
2023/08/12 08:38:36;;;;;;;28.73;14.63;;;;;;;;;;4995997;28;20109;-50
2023/08/12 08:41:11;;;;;;;30.33;13.95;;;;;;;;;;4994199;28;20147;-55
2023/08/12 08:43:38;;;;;;;;;;;;;;;;;;4992231;28;20802;-51
2023/08/12 08:46:06;;;;;;;26.90;14.20;;;;;;;;;;4994912;28;20265;-60
2023/08/12 08:48:41;;;;;;;26.75;14.93;;;;;;;;;;4996880;28;20063;-58
2023/08/12 08:51:09;;;;;;;27.55;13.43;;;;;;;;;;4995254;28;20062;-60
2023/08/12 08:53:42;;;;;;;21.83;12.52;;;;;;;;;;4996094;28;20066;-60
2023/08/12 08:56:11;;;;;;;16.85;11.68;;;;;;;;;;4115904;28;10000961;-61
2023/08/12 08:58:42;;;;;;;24.58;12.93;;;;;;;;;;4997161;28;20108;-60
2023/08/12 09:01:29;;;;;;;24.27;12.15;;;;;;;;;;4992831;28;20546;-60
2023/08/12 09:04:04;;;;;;;21.15;11.20;;;;;;;;;;5017419;28;20047;-60
2023/08/12 09:06:39;;;;;;;20.75;9.57;;;;;;;;;;5005660;28;20321;-59
2023/08/12 09:09:10;;;;;;;23.88;10.32;;;;;;;;;;5014515;28;20127;-60
2023/08/12 09:11:45;;;;;;;17.90;8.40;;;;;;;;;;5012360;28;20112;-60
2023/08/12 09:14:13;;;;;;;19.42;8.73;;;;;;;;;;5010869;28;20053;-59
2023/08/12 09:16:40;;;;;;;19.05;7.95;;;;;;;;;;5008948;28;20159;-56
2023/08/12 09:19:14;;;;;;;17.00;6.85;;;;;;;;;;5009153;28;20423;-66
2023/08/12 09:21:42;;;;;;;15.27;7.30;;;;;;;;;;5005254;28;20069;-65
2023/08/12 09:24:09;;;;;;;10.27;7.03;;;;;;;;;;5008522;28;20065;-66
2023/08/12 09:26:43;;;;;;;16.67;7.63;;;;;;;;;;5005029;28;20048;-66
2023/08/12 09:29:11;;;;;;;14.65;6.32;;;;;;;;;;5012176;28;21431;-66
2023/08/12 09:31:45;;;;;;;10.70;6.07;;;;;;;;;;5012277;28;20120;-67
2023/08/12 09:34:13;;;;;;;17.83;6.10;;;;;;;;;;5009640;28;20054;-60
2023/08/12 09:36:40;;;;;;;13.70;5.82;;;;;;;;;;5011856;28;20049;-60
2023/08/12 09:39:15;;;;;;;15.65;6.28;;;;;;;;;;5016265;28;20180;-60
2023/08/12 09:41:43;;;;;;;15.60;6.07;;;;;;;;;;5011960;28;20529;-60
2023/08/12 09:44:17;;;;;;;12.77;6.65;;;;;;;;;;5011403;28;20061;-60
2023/08/12 09:46:44;;;;;;;11.60;5.97;;;;;;;;;;5008157;28;20545;-58
2023/08/12 09:49:19;;;;;;;16.52;6.18;;;;;;;;;;5008528;28;20057;-59
2023/08/12 09:51:46;;;;;;;;;;;;;;;;;;5012214;28;20062;-59
2023/08/12 09:54:13;;;;;;;16.75;6.50;;;;;;;;;;5014403;28;20314;-58
2023/08/12 09:56:51;;;;;;;15.10;6.10;;;;;;;;;;5009143;28;20050;-58
2023/08/12 09:59:20;;;;;;;14.27;5.43;;;;;;;;;;5011893;28;20151;-59
2023/08/12 10:02:08;;;;;;;14.52;5.85;;;;;;;;;;5014483;28;20500;-53
2023/08/12 10:05:03;;;;;;;12.02;4.88;;;;;;;;;;5008279;28;20061;-53
2023/08/12 10:07:57;;;;;;;10.82;4.47;;;;;;;;;;5010011;28;20053;-53
2023/08/12 10:10:44;;;;;;;9.98;4.40;;;;;;;;;;5009867;28;20122;-51
2023/08/12 10:13:40;;;;;;;8.68;4.10;;;;;;;;;;5013986;28;20061;-69
2023/08/12 10:16:29;;;;;;;12.10;4.38;;;;;;;;;;5011978;28;20057;-70
2023/08/12 10:19:32;;;;;;;10.55;4.05;;;;;;;;;;5009300;28;20056;-70
2023/08/12 10:22:19;;;;;;;8.98;4.20;;;;;;;;;;5010219;28;20056;-69
2023/08/12 10:25:15;;;;;;;7.72;3.92;;;;;;;;;;5013555;28;20059;-70
2023/08/12 10:28:01;;;;;;;12.15;3.78;;;;;;;;;;5009383;28;20132;-70
2023/08/12 10:30:56;;;;;;;7.55;3.45;;;;;;;;;;5010732;28;20077;-60
2023/08/12 10:33:43;;;;;;;10.27;3.35;;;;;;;;;;5013270;28;20053;-60
2023/08/12 10:36:41;;;;;;;6.88;3.63;;;;;;;;;;5017229;28;20063;-60
2023/08/12 10:39:33;;;;;;;9.10;3.80;;;;;;;;;;5017474;28;20176;-60
2023/08/12 10:42:43;;;;;;;10.30;4.00;;;;;;;;;;5015800;28;20057;-60
2023/08/12 10:45:43;;;;;;;10.30;3.85;;;;;;;;;;5014556;28;20057;-58
2023/08/12 10:48:56;;;;;;;7.82;3.80;;;;;;;;;;5017842;28;20049;-59
2023/08/12 10:51:47;;;;;;;8.77;3.50;;;;;;;;;;5016358;28;20514;-59
2023/08/12 10:54:46;;;;;;;8.57;3.40;;;;;;;;;;5017048;28;20049;-58
2023/08/12 10:57:40;;;;;;;14.32;3.38;;;;;;;;;;5015709;28;20053;-59
2023/08/12 11:00:35;;;;;;;8.70;3.22;;;;;;;;;;5013801;28;20054;-50
2023/08/12 11:03:33;;;;;;;10.48;3.50;;;;;;;;;;5015962;28;20045;-54
2023/08/12 11:06:28;;;;;;;7.47;3.22;;;;;;;;;;5012358;28;20107;-53
2023/08/12 11:09:15;;;;;;;7.53;3.30;;;;;;;;;;5009073;28;20084;-54
2023/08/12 11:12:09;;;;;;;6.80;3.20;;;;;;;;;;5012629;28;20119;-54
2023/08/12 11:14:59;;;;;;;10.90;3.10;;;;;;;;;;5016191;28;20187;-55
2023/08/12 11:17:51;;;;;;;9.00;3.25;;;;;;;;;;5014566;28;20061;-55
2023/08/12 11:20:39;;;;;;;6.63;2.92;;;;;;;;;;5011492;28;20105;-55
2023/08/12 11:23:33;;;;;;;7.07;2.70;;;;;;;;;;5014727;28;20056;-54
2023/08/12 11:26:20;;;;;;;6.32;2.97;;;;;;;;;;5017948;28;20175;-68
2023/08/12 11:29:14;;;;;;;6.95;3.38;;;;;;;;;;5011776;28;20498;-68
2023/08/12 11:32:01;;;;;;;10.95;3.00;;;;;;;;;;5012858;28;20672;-69
2023/08/12 11:34:55;;;;;;;4.55;2.30;;;;;;;;;;5010509;28;20537;-68
2023/08/12 11:37:53;;;;;;;9.73;2.92;;;;;;;;;;5016171;28;20054;-60
2023/08/12 11:40:39;;;;;;;8.02;3.13;;;;;;;;;;5017923;28;20526;-60
2023/08/12 11:43:33;;;;;;;7.95;3.08;;;;;;;;;;5015929;28;20053;-60
2023/08/12 11:46:20;;;;;;;7.10;2.63;;;;;;;;;;5014500;28;20522;-60
2023/08/12 11:49:13;;;;;;;7.43;2.92;;;;;;;;;;5020413;28;20050;-61
2023/08/12 11:52:01;;;;;;;12.52;3.30;;;;;;;;;;5014203;28;20143;-60
2023/08/12 11:54:54;;;;;;;12.38;2.92;;;;;;;;;;5012461;28;20049;-65
2023/08/12 11:57:42;;;;;;;9.45;3.25;;;;;;;;;;5013709;28;20112;-65
2023/08/12 12:00:35;;;;;;;7.25;3.33;;;;;;;;;;5016014;28;20049;-65
2023/08/12 12:03:29;;;;;;;9.50;3.03;;;;;;;;;;5006441;28;20061;-65
2023/08/12 12:06:33;;;;;;;10.23;3.05;;;;;;;;;;5014068;28;20543;-70
2023/08/12 12:09:21;;;;;;;10.70;3.35;;;;;;;;;;5011944;28;20073;-59
2023/08/12 12:12:14;;;;;;;11.70;2.83;;;;;;;;;;5014716;28;20053;-59
2023/08/12 12:15:01;;;;;;;12.15;3.13;;;;;;;;;;5008528;28;20058;-59
2023/08/12 12:17:55;;;;;;;6.78;2.83;;;;;;;;;;5011268;28;20049;-59
2023/08/12 12:20:57;;;;;;;9.68;2.70;;;;;;;;;;5008029;28;20057;-59
2023/08/12 12:23:44;;;;;;;7.43;3.28;;;;;;;;;;5014210;28;20485;-54
2023/08/12 12:26:38;;;;;;;6.60;2.70;;;;;;;;;;5013817;28;20080;-57
2023/08/12 12:29:25;;;;;;;6.43;2.97;;;;;;;;;;5011629;28;20054;-56
2023/08/12 12:32:19;;;;;;;9.75;3.10;;;;;;;;;;5009409;28;20144;-53
2023/08/12 12:35:12;;;;;;;8.75;2.85;;;;;;;;;;5014698;28;20415;-65
2023/08/12 12:38:13;;;;;;;6.90;3.08;;;;;;;;;;5011876;28;20273;-68
2023/08/12 12:41:07;;;;;;;5.57;2.90;;;;;;;;;;5015635;28;20339;-68
2023/08/12 12:43:55;;;;;;;10.43;2.63;;;;;;;;;;5017563;28;20214;-68
2023/08/12 12:46:48;;;;;;;7.40;3.00;;;;;;;;;;5016339;28;20057;-67
2023/08/12 12:49:38;;;;;;;5.70;2.65;;;;;;;;;;5007162;28;20053;-68
2023/08/12 12:52:32;;;;;;;5.70;2.80;;;;;;;;;;5008359;28;20305;-61
2023/08/12 12:55:20;;;;;;;9.73;3.50;;;;;;;;;;5010246;28;20054;-61
2023/08/12 12:58:12;;;;;;;7.32;3.15;;;;;;;;;;5013465;28;20526;-60
2023/08/12 13:01:01;;;;;;;6.07;2.88;;;;;;;;;;5012759;28;20128;-60
2023/08/12 13:04:01;;;;;;;8.40;3.10;;;;;;;;;;4994545;28;20042;-50
2023/08/12 13:06:48;;;;;;;5.18;2.60;;;;;;;;;;4992756;28;20038;-60
2023/08/12 13:09:42;;;;;;;7.75;2.90;;;;;;;;;;4995033;28;20053;-60
2023/08/12 13:12:30;;;;;;;10.18;3.53;;;;;;;;;;4993066;28;20057;-60
2023/08/12 13:15:25;;;;;;;7.53;2.90;;;;;;;;;;4991789;28;20109;-60
2023/08/12 13:18:11;;;;;;;9.13;3.40;;;;;;;;;;4993081;28;20065;-61
2023/08/12 13:21:05;;;;;;;7.20;3.00;;;;;;;;;;4988882;28;20050;-53
2023/08/12 13:24:01;;;;;;;6.07;2.83;;;;;;;;;;4990848;28;20116;-50
2023/08/12 13:26:47;;;;;;;6.70;2.65;;;;;;;;;;4991655;28;20801;-50
2023/08/12 13:29:41;;;;;;;7.18;2.80;;;;;;;;;;4990412;28;20191;-52
2023/08/12 13:32:34;;;;;;;6.32;2.97;;;;;;;;;;4993424;28;20057;-62
2023/08/12 13:35:24;;;;;;;7.80;3.00;;;;;;;;;;4989263;28;20050;-65
2023/08/12 13:38:17;;;;;;;9.63;3.10;;;;;;;;;;4991106;28;20054;-65
2023/08/12 13:41:12;;;;;;;7.30;2.53;;;;;;;;;;4996907;28;20139;-65
2023/08/12 13:44:05;;;;;;;4.78;2.70;;;;;;;;;;4993130;28;20542;-64
2023/08/12 13:46:53;;;;;;;6.07;2.70;;;;;;;;;;4985458;28;20042;-65
2023/08/12 13:49:46;;;;;;;8.30;2.92;;;;;;;;;;4992428;28;20520;-68
2023/08/12 13:52:34;;;;;;;5.82;2.58;;;;;;;;;;4991798;28;20252;-68
2023/08/12 13:55:27;;;;;;;5.28;2.80;;;;;;;;;;4996593;28;20100;-68
2023/08/12 13:58:22;;;;;;;8.18;2.70;;;;;;;;;;4996805;28;20171;-68
2023/08/12 14:01:09;;;;;;;4.70;2.30;;;;;;;;;;4996657;28;20483;-60
2023/08/12 14:04:09;;;;;;;10.05;2.80;;;;;;;;;;4996816;28;20053;-60
2023/08/12 14:06:56;;;;;;;19.13;3.03;;;;;;;;;;4999402;28;20611;-61
2023/08/12 14:09:50;;;;;;;4.80;2.83;;;;;;;;;;4993405;28;20543;-61
2023/08/12 14:12:45;;;;;;;7.35;3.30;;;;;;;;;;5001015;28;20116;-60
2023/08/12 14:15:32;;;;;;;13.02;3.40;;;;;;;;;;4996815;28;20076;-60
2023/08/12 14:18:25;;;;;;;4.93;3.00;;;;;;;;;;4994301;28;20284;-64
2023/08/12 14:21:12;;;;;;;7.28;3.45;;;;;;;;;;4994406;28;20531;-64
2023/08/12 14:24:06;;;;;;;8.57;3.72;;;;;;;;;;4996902;28;20458;-64
2023/08/12 14:26:54;;;;;;;8.38;3.70;;;;;;;;;;4998900;28;20856;-64
2023/08/12 14:29:47;;;;;;;7.75;3.67;;;;;;;;;;5000898;28;20470;-65
2023/08/12 14:32:35;;;;;;;7.47;3.30;;;;;;;;;;4997651;28;20360;-61
2023/08/12 14:35:28;;;;;;;7.00;3.20;;;;;;;;;;4993292;28;20152;-61
2023/08/12 14:38:16;;;;;;;8.60;3.60;;;;;;;;;;5000089;28;20483;-60
2023/08/12 14:41:10;;;;;;;5.72;3.15;;;;;;;;;;4999831;28;20077;-61
2023/08/12 14:43:57;;;;;;;5.88;2.78;;;;;;;;;;5001597;28;20095;-61
2023/08/12 14:46:52;;;;;;;8.10;3.13;;;;;;;;;;4996224;28;20057;-53
2023/08/12 14:49:39;;;;;;;5.90;3.10;;;;;;;;;;4993657;28;20064;-54
2023/08/12 14:52:32;;;;;;;4.53;2.92;;;;;;;;;;4999031;28;20054;-54
2023/08/12 14:55:20;;;;;;;6.00;3.00;;;;;;;;;;4999627;28;20522;-50
2023/08/12 14:58:15;;;;;;;10.82;3.13;;;;;;;;;;4999765;28;20060;-64
2023/08/12 15:01:02;;;;;;;6.25;2.70;;;;;;;;;;4993166;28;22196;-52
2023/08/12 15:04:03;;;;;;;5.38;2.88;;;;;;;;;;5011619;28;20482;-51
2023/08/12 15:06:51;;;;;;;3.75;2.33;;;;;;;;;;5015338;28;20042;-52
2023/08/12 15:09:45;;;;;;;6.38;2.67;;;;;;;;;;5013782;28;20061;-53
2023/08/12 15:12:32;;;;;;;6.50;2.72;;;;;;;;;;5012476;28;20054;-50
2023/08/12 15:15:25;;;;;;;7.00;2.50;;;;;;;;;;5014518;28;20061;-60
2023/08/12 15:18:13;;;;;;;3.85;2.50;;;;;;;;;;5015319;28;20077;-60
2023/08/12 15:21:13;;;;;;;4.20;2.40;;;;;;;;;;5012018;28;20053;-60
2023/08/12 15:24:00;;;;;;;4.88;2.55;;;;;;;;;;5016105;28;20171;-55
2023/08/12 15:26:54;;;;;;;3.88;2.45;;;;;;;;;;5014979;28;20525;-69
2023/08/12 15:29:42;;;;;;;4.30;2.50;;;;;;;;;;5018377;28;20080;-54
2023/08/12 15:32:37;;;;;;;2.65;2.25;;;;;;;;;;5006179;28;20527;-53
2023/08/12 15:35:24;;;;;;;3.28;2.45;;;;;;;;;;5016737;28;20145;-54
2023/08/12 15:38:18;;;;;;;6.40;2.47;;;;;;;;;;5017911;28;20476;-55